sensor_id;sensor_type;location;lat;lon;timestamp;pressure;altitude;pressure_sealevel;temperature;humidity
39613;BME280;25303;48.896;13.342;2023-11-19T00:07:42;92903.09;;;1.69;73.20
39613;BME280;25303;48.896;13.342;2023-11-19T00:17:47;92916.78;;;1.66;73.18
39613;BME280;25303;48.896;13.342;2023-11-19T00:27:51;92900.88;;;1.64;73.47
39613;BME280;25303;48.896;13.342;2023-11-19T00:37:57;92881.38;;;1.52;74.08
39613;BME280;25303;48.896;13.342;2023-11-19T00:48:00;92874.47;;;1.41;74.73
39613;BME280;25303;48.896;13.342;2023-11-19T00:58:05;92843.44;;;1.38;75.00
39613;BME280;25303;48.896;13.342;2023-11-19T01:08:08;92837.03;;;1.19;76.93
39613;BME280;25303;48.896;13.342;2023-11-19T01:18:12;92836.31;;;1.17;77.49
39613;BME280;25303;48.896;13.342;2023-11-19T01:28:15;92822.34;;;1.24;77.23
39613;BME280;25303;48.896;13.342;2023-11-19T01:38:19;92811.88;;;1.29;77.15
39613;BME280;25303;48.896;13.342;2023-11-19T01:48:22;92796.97;;;1.37;76.88
39613;BME280;25303;48.896;13.342;2023-11-19T01:58:27;92788.84;;;1.32;77.55
39613;BME280;25303;48.896;13.342;2023-11-19T02:08:31;92795.22;;;1.50;76.51
39613;BME280;25303;48.896;13.342;2023-11-19T02:18:36;92780.91;;;1.49;76.74
39613;BME280;25303;48.896;13.342;2023-11-19T02:28:41;92752.50;;;1.44;77.19
39613;BME280;25303;48.896;13.342;2023-11-19T02:38:46;92749.97;;;1.44;77.40
39613;BME280;25303;48.896;13.342;2023-11-19T02:48:50;92743.38;;;1.55;77.11
39613;BME280;25303;48.896;13.342;2023-11-19T02:58:53;92728.63;;;1.60;77.15
39613;BME280;25303;48.896;13.342;2023-11-19T03:08:58;92723.78;;;1.57;77.37
39613;BME280;25303;48.896;13.342;2023-11-19T03:19:07;92707.13;;;1.52;77.46
39613;BME280;25303;48.896;13.342;2023-11-19T03:29:11;92684.84;;;1.45;78.12
39613;BME280;25303;48.896;13.342;2023-11-19T03:39:14;92670.00;;;1.51;78.10
39613;BME280;25303;48.896;13.342;2023-11-19T03:49:19;92673.72;;;1.59;77.47
39613;BME280;25303;48.896;13.342;2023-11-19T03:59:22;92678.66;;;1.49;78.41
39613;BME280;25303;48.896;13.342;2023-11-19T04:09:26;92681.03;;;1.63;77.65
39613;BME280;25303;48.896;13.342;2023-11-19T04:19:29;92676.50;;;1.56;78.47
39613;BME280;25303;48.896;13.342;2023-11-19T04:29:36;92655.47;;;1.54;78.49
39613;BME280;25303;48.896;13.342;2023-11-19T04:39:38;92634.75;;;1.60;77.89
39613;BME280;25303;48.896;13.342;2023-11-19T04:49:43;92632.56;;;1.66;77.79
39613;BME280;25303;48.896;13.342;2023-11-19T04:59:47;92628.81;;;1.72;77.55
39613;BME280;25303;48.896;13.342;2023-11-19T05:09:52;92615.81;;;1.52;79.16
39613;BME280;25303;48.896;13.342;2023-11-19T05:19:55;92607.63;;;1.49;79.44
39613;BME280;25303;48.896;13.342;2023-11-19T05:29:59;92579.59;;;1.50;79.50
39613;BME280;25303;48.896;13.342;2023-11-19T05:40:02;92583.81;;;1.74;78.16
39613;BME280;25303;48.896;13.342;2023-11-19T05:50:10;92601.25;;;1.79;77.98
39613;BME280;25303;48.896;13.342;2023-11-19T06:00:13;92566.50;;;1.68;78.88
39613;BME280;25303;48.896;13.342;2023-11-19T06:10:19;92538.81;;;1.65;79.21
39613;BME280;25303;48.896;13.342;2023-11-19T06:20:22;92589.16;;;1.82;78.23
39613;BME280;25303;48.896;13.342;2023-11-19T06:30:27;92599.03;;;1.99;77.88
39613;BME280;25303;48.896;13.342;2023-11-19T06:40:31;92621.63;;;2.02;77.44
39613;BME280;25303;48.896;13.342;2023-11-19T06:50:36;92628.81;;;2.08;77.68
39613;BME280;25303;48.896;13.342;2023-11-19T07:00:39;92624.06;;;2.03;77.43
39613;BME280;25303;48.896;13.342;2023-11-19T07:10:44;92619.09;;;2.02;77.40
39613;BME280;25303;48.896;13.342;2023-11-19T07:20:49;92618.63;;;1.96;78.14
39613;BME280;25303;48.896;13.342;2023-11-19T07:30:53;92624.66;;;1.71;80.28
39613;BME280;25303;48.896;13.342;2023-11-19T07:40:57;92632.69;;;2.01;78.66
39613;BME280;25303;48.896;13.342;2023-11-19T07:51:02;92621.91;;;2.10;78.58
39613;BME280;25303;48.896;13.342;2023-11-19T08:01:05;92622.25;;;2.17;79.00
39613;BME280;25303;48.896;13.342;2023-11-19T08:11:10;92618.53;;;2.09;79.35
39613;BME280;25303;48.896;13.342;2023-11-19T08:21:13;92621.69;;;2.13;79.22
39613;BME280;25303;48.896;13.342;2023-11-19T08:31:18;92610.84;;;2.22;78.68
39613;BME280;25303;48.896;13.342;2023-11-19T08:41:21;92602.88;;;2.27;79.03
39613;BME280;25303;48.896;13.342;2023-11-19T08:51:26;92598.63;;;2.27;78.95
39613;BME280;25303;48.896;13.342;2023-11-19T09:01:30;92614.25;;;1.99;79.50
39613;BME280;25303;48.896;13.342;2023-11-19T09:11:34;92608.00;;;2.38;79.20
39613;BME280;25303;48.896;13.342;2023-11-19T09:21:39;92610.09;;;2.56;79.45
39613;BME280;25303;48.896;13.342;2023-11-19T09:31:43;92590.56;;;2.56;81.04
39613;BME280;25303;48.896;13.342;2023-11-19T09:41:46;92582.81;;;2.69;79.58
39613;BME280;25303;48.896;13.342;2023-11-19T09:51:52;92575.63;;;2.74;79.60
39613;BME280;25303;48.896;13.342;2023-11-19T10:01:56;92571.19;;;3.11;79.61
39613;BME280;25303;48.896;13.342;2023-11-19T10:12:00;92562.88;;;3.53;79.80
39613;BME280;25303;48.896;13.342;2023-11-19T10:22:04;92562.56;;;3.67;79.09
39613;BME280;25303;48.896;13.342;2023-11-19T10:32:08;92559.41;;;3.75;79.10
39613;BME280;25303;48.896;13.342;2023-11-19T10:42:28;92552.44;;;3.88;79.18
39613;BME280;25303;48.896;13.342;2023-11-19T10:52:33;92543.72;;;4.12;79.37
39613;BME280;25303;48.896;13.342;2023-11-19T11:02:40;92546.16;;;4.14;79.17
39613;BME280;25303;48.896;13.342;2023-11-19T11:12:46;92532.69;;;4.33;79.45
39613;BME280;25303;48.896;13.342;2023-11-19T11:23:01;92520.06;;;4.62;80.05
39613;BME280;25303;48.896;13.342;2023-11-19T11:33:33;92521.63;;;4.94;79.79
39613;BME280;25303;48.896;13.342;2023-11-19T11:43:47;92517.09;;;5.08;79.63
39613;BME280;25303;48.896;13.342;2023-11-19T11:53:52;92521.28;;;5.19;79.80
39613;BME280;25303;48.896;13.342;2023-11-19T12:03:56;92521.69;;;5.33;79.77
39613;BME280;25303;48.896;13.342;2023-11-19T12:14:01;92505.31;;;5.46;80.03
39613;BME280;25303;48.896;13.342;2023-11-19T12:24:06;92503.69;;;5.65;80.50
39613;BME280;25303;48.896;13.342;2023-11-19T12:34:11;92493.06;;;5.79;80.29
39613;BME280;25303;48.896;13.342;2023-11-19T12:44:15;92484.00;;;6.04;81.13
39613;BME280;25303;48.896;13.342;2023-11-19T12:54:19;92481.06;;;6.47;81.91
39613;BME280;25303;48.896;13.342;2023-11-19T13:04:23;92476.06;;;6.83;81.27
39613;BME280;25303;48.896;13.342;2023-11-19T13:14:37;92457.03;;;7.04;81.88
39613;BME280;25303;48.896;13.342;2023-11-19T13:24:40;92437.81;;;7.54;82.63
39613;BME280;25303;48.896;13.342;2023-11-19T13:34:46;92452.47;;;8.14;82.64
39613;BME280;25303;48.896;13.342;2023-11-19T13:44:49;92452.94;;;8.10;82.33
39613;BME280;25303;48.896;13.342;2023-11-19T13:54:54;92441.66;;;8.29;81.36
39613;BME280;25303;48.896;13.342;2023-11-19T14:04:57;92428.22;;;8.35;81.29
39613;BME280;25303;48.896;13.342;2023-11-19T14:15:02;92434.53;;;8.49;81.45
39613;BME280;25303;48.896;13.342;2023-11-19T14:25:08;92443.25;;;8.64;81.04
39613;BME280;25303;48.896;13.342;2023-11-19T14:35:13;92449.97;;;9.00;81.68
39613;BME280;25303;48.896;13.342;2023-11-19T14:45:16;92449.03;;;9.26;81.43
39613;BME280;25303;48.896;13.342;2023-11-19T14:55:20;92440.69;;;9.24;80.06
39613;BME280;25303;48.896;13.342;2023-11-19T15:05:23;92451.72;;;9.00;79.39
39613;BME280;25303;48.896;13.342;2023-11-19T15:15:28;92445.41;;;8.86;79.41
39613;BME280;25303;48.896;13.342;2023-11-19T15:25:33;92456.63;;;8.76;79.56
39613;BME280;25303;48.896;13.342;2023-11-19T15:35:39;92453.53;;;8.64;79.22
39613;BME280;25303;48.896;13.342;2023-11-19T15:45:43;92450.13;;;8.56;79.42
39613;BME280;25303;48.896;13.342;2023-11-19T15:55:47;92450.31;;;8.36;78.83
39613;BME280;25303;48.896;13.342;2023-11-19T16:05:50;92430.84;;;8.17;79.09
39613;BME280;25303;48.896;13.342;2023-11-19T16:16:11;92429.22;;;8.08;79.22
39613;BME280;25303;48.896;13.342;2023-11-19T16:26:14;92435.31;;;7.88;78.94
39613;BME280;25303;48.896;13.342;2023-11-19T16:36:18;92437.97;;;7.79;79.21
39613;BME280;25303;48.896;13.342;2023-11-19T16:46:21;92446.94;;;7.74;79.51
39613;BME280;25303;48.896;13.342;2023-11-19T16:56:28;92452.19;;;7.73;79.17
39613;BME280;25303;48.896;13.342;2023-11-19T17:06:38;92448.44;;;7.59;78.58
39613;BME280;25303;48.896;13.342;2023-11-19T17:16:42;92466.56;;;7.48;78.81
39613;BME280;25303;48.896;13.342;2023-11-19T17:26:46;92446.47;;;7.35;78.98
39613;BME280;25303;48.896;13.342;2023-11-19T17:36:50;92468.88;;;7.33;78.84
39613;BME280;25303;48.896;13.342;2023-11-19T17:46:53;92477.25;;;7.43;79.01
39613;BME280;25303;48.896;13.342;2023-11-19T17:56:57;92467.47;;;7.38;79.17
39613;BME280;25303;48.896;13.342;2023-11-19T18:07:00;92495.25;;;7.33;78.67
39613;BME280;25303;48.896;13.342;2023-11-19T18:17:05;92475.59;;;7.34;79.06
39613;BME280;25303;48.896;13.342;2023-11-19T18:27:09;92486.19;;;7.57;79.32
39613;BME280;25303;48.896;13.342;2023-11-19T18:37:13;92477.28;;;7.61;79.07
39613;BME280;25303;48.896;13.342;2023-11-19T18:47:17;92466.63;;;7.74;79.68
39613;BME280;25303;48.896;13.342;2023-11-19T18:57:22;92474.09;;;7.85;78.74
39613;BME280;25303;48.896;13.342;2023-11-19T19:07:25;92480.66;;;7.70;78.76
39613;BME280;25303;48.896;13.342;2023-11-19T19:17:29;92473.63;;;7.90;77.79
39613;BME280;25303;48.896;13.342;2023-11-19T19:27:32;92494.44;;;7.87;77.75
39613;BME280;25303;48.896;13.342;2023-11-19T19:37:37;92478.88;;;7.88;77.40
39613;BME280;25303;48.896;13.342;2023-11-19T19:47:40;92491.59;;;7.72;76.73
39613;BME280;25303;48.896;13.342;2023-11-19T19:57:44;92492.41;;;7.72;76.33
39613;BME280;25303;48.896;13.342;2023-11-19T20:07:49;92512.03;;;7.64;76.45
39613;BME280;25303;48.896;13.342;2023-11-19T20:17:55;92523.00;;;7.56;76.76
39613;BME280;25303;48.896;13.342;2023-11-19T20:27:59;92532.28;;;7.39;77.35
39613;BME280;25303;48.896;13.342;2023-11-19T20:38:04;92544.00;;;7.41;77.29
39613;BME280;25303;48.896;13.342;2023-11-19T20:48:07;92549.06;;;7.51;77.42
39613;BME280;25303;48.896;13.342;2023-11-19T20:58:13;92528.25;;;7.54;77.51
39613;BME280;25303;48.896;13.342;2023-11-19T21:08:17;92530.31;;;7.51;76.99
39613;BME280;25303;48.896;13.342;2023-11-19T21:18:22;92548.75;;;7.54;76.92
39613;BME280;25303;48.896;13.342;2023-11-19T21:28:25;92555.19;;;7.58;77.17
39613;BME280;25303;48.896;13.342;2023-11-19T21:38:30;92553.97;;;7.63;77.11
39613;BME280;25303;48.896;13.342;2023-11-19T21:48:33;92536.81;;;7.63;77.07
39613;BME280;25303;48.896;13.342;2023-11-19T21:58:39;92548.63;;;7.56;76.92
39613;BME280;25303;48.896;13.342;2023-11-19T22:08:42;92528.25;;;7.54;77.02
39613;BME280;25303;48.896;13.342;2023-11-19T22:18:46;92528.78;;;7.58;76.79
39613;BME280;25303;48.896;13.342;2023-11-19T22:28:49;92525.84;;;7.53;76.53
39613;BME280;25303;48.896;13.342;2023-11-19T22:38:53;92542.13;;;7.43;76.49
39613;BME280;25303;48.896;13.342;2023-11-19T22:48:56;92537.19;;;7.32;76.22
39613;BME280;25303;48.896;13.342;2023-11-19T22:59:01;92539.44;;;7.17;76.20
39613;BME280;25303;48.896;13.342;2023-11-19T23:09:06;92545.28;;;7.09;75.95
39613;BME280;25303;48.896;13.342;2023-11-19T23:19:10;92550.28;;;7.01;75.88
39613;BME280;25303;48.896;13.342;2023-11-19T23:29:14;92538.63;;;6.89;75.73
39613;BME280;25303;48.896;13.342;2023-11-19T23:39:18;92538.69;;;6.79;75.94
39613;BME280;25303;48.896;13.342;2023-11-19T23:49:21;92538.56;;;6.71;75.78
39613;BME280;25303;48.896;13.342;2023-11-19T23:59:26;92533.09;;;6.65;75.95
